Time;durP1;ratioP1;P1;durP2;ratioP2;P2;SDS_P1;SDS_P2;PMS_P1;PMS_P2;Temp;Humidity;BMP_temperature;BMP_pressure;BME280_temperature;BME280_humidity;BME280_pressure;Samples;Min_cycle;Max_cycle;Signal;HPM_P1;HPM_P2
2023/07/02 00:01:53;;;;;;;10.83;4.97;;;20.20;99.90;;;20.65;66.62;94346.91;4998108;28;20458;-60
2023/07/02 00:04:20;;;;;;;9.13;6.00;;;20.20;99.90;;;20.64;66.59;94339.06;4989205;28;20932;-59
2023/07/02 00:06:48;;;;;;;8.40;5.97;;;20.20;99.90;;;20.63;66.29;94343.56;4986283;28;20451;-58
2023/07/02 00:09:15;;;;;;;7.63;5.20;;;20.20;99.90;;;20.60;66.35;94339.50;4986396;28;20589;-58
2023/07/02 00:11:45;;;;;;;8.13;5.90;;;20.10;99.90;;;20.60;66.50;94334.16;4986377;28;20497;-57
2023/07/02 00:14:14;;;;;;;6.20;5.30;;;20.10;99.90;;;20.59;66.60;94331.69;4983269;28;20446;-59
2023/07/02 00:16:44;;;;;;;7.33;5.27;;;20.20;99.90;;;20.59;66.83;94332.50;4986850;28;20979;-58
2023/07/02 00:19:12;;;;;;;15.30;6.50;;;20.10;99.90;;;20.56;66.84;94326.78;4986929;28;20447;-72
2023/07/02 00:21:40;;;;;;;5.97;5.30;;;20.10;99.90;;;20.52;66.85;94330.91;4987831;28;20956;-74
2023/07/02 00:24:09;;;;;;;6.70;5.50;;;20.10;99.90;;;20.50;67.40;94327.63;4986622;28;20906;-71
2023/07/02 00:26:38;;;;;;;5.47;4.60;;;20.00;99.90;;;20.49;67.18;94331.34;4986935;28;20466;-70
2023/07/02 00:29:07;;;;;;;6.93;5.27;;;20.00;99.90;;;20.49;67.46;94334.00;4987264;28;20516;-58
2023/07/02 00:31:34;;;;;;;17.17;6.57;;;20.00;99.90;;;20.50;67.15;94327.63;4986839;28;20459;-59
2023/07/02 00:34:02;;;;;;;9.03;5.27;;;20.00;99.90;;;20.51;67.36;94345.28;4986870;28;20470;-58
2023/07/02 00:36:29;;;;;;;5.93;5.30;;;20.00;99.90;;;20.50;67.42;94351.69;4986909;28;21370;-72
2023/07/02 00:38:57;;;;;;;6.33;5.67;;;20.00;99.90;;;20.49;67.69;94352.72;4986404;28;20517;-58
2023/07/02 00:41:24;;;;;;;9.63;5.70;;;20.00;99.90;;;20.50;67.15;94355.16;4988227;28;21018;-73
2023/07/02 00:43:54;;;;;;;10.20;6.10;;;20.00;99.90;;;20.50;67.31;94349.81;5002322;28;20455;-75
2023/07/02 00:46:25;;;;;;;6.57;5.67;;;20.00;99.90;;;20.51;67.50;94361.31;4989299;28;20559;-58
2023/07/02 00:48:54;;;;;;;9.50;6.00;;;20.00;99.90;;;20.51;67.40;94367.50;4998704;28;20455;-59
2023/07/02 00:51:22;;;;;;;7.23;4.50;;;20.00;99.90;;;20.53;67.31;94368.09;4993158;28;20504;-59
2023/07/02 00:53:51;;;;;;;8.57;5.87;;;20.10;99.90;;;20.54;67.22;94364.41;4987582;28;20462;-59
2023/07/02 00:56:18;;;;;;;9.70;6.10;;;20.10;99.90;;;20.57;67.68;94366.66;4986586;28;20479;-72
2023/07/02 00:58:48;;;;;;;7.93;5.27;;;20.10;99.90;;;20.59;67.40;94363.75;4985734;28;20451;-58
2023/07/02 01:01:16;;;;;;;8.90;5.20;;;20.10;99.90;;;20.61;67.58;94367.03;4985441;28;20863;-58
2023/07/02 01:03:55;;;;;;;14.70;5.40;;;20.10;99.90;;;20.61;66.99;94361.69;4985568;28;20545;-59
2023/07/02 01:06:26;;;;;;;6.03;5.10;;;20.10;99.90;;;20.60;67.15;94360.88;4985713;28;20469;-60
2023/07/02 01:08:55;;;;;;;7.53;5.40;;;20.10;99.90;;;20.60;67.29;94352.03;4982624;28;20478;-58
2023/07/02 01:11:24;;;;;;;7.40;5.10;;;20.10;99.90;;;20.59;66.91;94350.41;4988068;28;20486;-59
2023/07/02 01:13:53;;;;;;;9.20;6.40;;;20.10;99.90;;;20.55;67.49;94341.97;4989404;28;20550;-73
2023/07/02 01:16:21;;;;;;;5.93;5.30;;;20.10;99.90;;;20.52;67.15;94346.94;4988451;28;21271;-73
2023/07/02 01:18:50;;;;;;;11.73;5.20;;;20.10;99.90;;;20.50;67.11;94344.47;4991965;28;20538;-59
2023/07/02 01:21:19;;;;;;;7.90;6.17;;;20.10;99.90;;;20.51;67.05;94334.59;4991691;28;20565;-59
2023/07/02 01:23:46;;;;;;;7.67;5.90;;;20.00;99.90;;;20.50;67.13;94341.81;4989628;28;20459;-73
2023/07/02 01:26:14;;;;;;;6.37;5.33;;;20.00;99.90;;;20.48;67.11;94316.31;4992579;28;20552;-58
2023/07/02 01:28:42;;;;;;;7.83;5.53;;;20.00;99.90;;;20.50;67.11;94315.09;4988420;28;20459;-59
2023/07/02 01:31:09;;;;;;;9.67;6.00;;;20.00;99.90;;;20.51;66.91;94310.56;4985523;28;20509;-72
2023/07/02 01:33:37;;;;;;;9.50;6.17;;;20.10;99.90;;;20.52;66.54;94309.53;4988967;28;20549;-58
2023/07/02 01:36:05;;;;;;;11.10;5.53;;;20.00;99.90;;;20.54;66.73;94321.66;4988053;28;20482;-58
2023/07/02 01:38:34;;;;;;;6.60;5.57;;;20.00;99.90;;;20.54;66.89;94320.81;4988626;28;20454;-58
2023/07/02 01:41:01;;;;;;;9.70;5.30;;;20.10;99.90;;;20.53;66.73;94311.19;4989724;28;20486;-59
2023/07/02 01:43:28;;;;;;;7.70;5.77;;;20.10;99.90;;;20.53;66.79;94313.84;4988975;28;20451;-73
2023/07/02 01:45:56;;;;;;;10.00;5.57;;;20.10;99.90;;;20.50;66.72;94315.09;4989241;28;20532;-73
2023/07/02 01:48:24;;;;;;;12.50;6.27;;;20.00;99.90;;;20.49;66.86;94320.66;4988622;28;20544;-58
2023/07/02 01:50:51;;;;;;;8.20;6.50;;;20.00;99.90;;;20.48;67.01;94317.16;4988336;28;20509;-72
2023/07/02 01:53:18;;;;;;;9.50;7.00;;;20.00;99.90;;;20.45;66.71;94300.72;4989198;28;20454;-59
2023/07/02 01:55:47;;;;;;;13.57;6.37;;;20.00;99.90;;;20.45;66.59;94301.56;4988681;28;20512;-59
2023/07/02 01:58:14;;;;;;;7.50;6.00;;;20.00;99.90;;;20.45;66.91;94298.06;4988480;28;20533;-58
2023/07/02 02:00:41;;;;;;;11.20;6.40;;;20.00;99.90;;;20.45;67.04;94287.38;4988694;28;20486;-71
2023/07/02 02:03:24;;;;;;;11.30;6.27;;;20.00;99.90;;;20.44;66.63;94301.78;5129113;27;20586;-58
2023/07/02 02:05:51;;;;;;;8.60;6.13;;;20.00;99.90;;;20.41;66.78;94305.69;5095736;28;20913;-59
2023/07/02 02:08:18;;;;;;;15.73;6.43;;;20.00;99.90;;;20.41;67.14;94305.69;5096432;28;20461;-71
2023/07/02 02:10:46;;;;;;;20.83;7.90;;;19.90;99.90;;;20.37;68.01;94315.16;5096250;28;20469;-58
2023/07/02 02:13:13;;;;;;;11.30;5.80;;;19.90;99.90;;;20.30;67.57;94312.53;5090458;28;21076;-59
2023/07/02 02:15:41;;;;;;;8.97;5.33;;;19.90;99.90;;;20.27;68.09;94304.13;5095435;28;20497;-58
2023/07/02 02:18:08;;;;;;;17.00;7.43;;;19.80;99.90;;;20.21;67.93;94295.94;5091391;28;20534;-59
2023/07/02 02:20:37;;;;;;;9.40;5.67;;;19.70;99.90;;;20.18;68.26;94292.88;5090625;28;20531;-58
2023/07/02 02:23:04;;;;;;;11.40;6.60;;;19.70;99.90;;;20.12;67.97;94299.06;5085978;28;20590;-71
2023/07/02 02:25:32;;;;;;;10.43;6.23;;;19.70;99.90;;;20.00;68.23;94285.56;5095547;28;20473;-72
2023/07/02 02:27:59;;;;;;;10.87;6.20;;;19.60;99.90;;;19.88;68.64;94291.56;5090594;28;20458;-59
2023/07/02 02:30:26;;;;;;;9.30;6.37;;;19.50;99.90;;;19.81;68.72;94287.28;5095138;28;20461;-73
2023/07/02 02:32:54;;;;;;;12.67;6.43;;;19.40;99.90;;;19.78;70.02;94261.84;5089527;28;20482;-73
2023/07/02 02:35:22;;;;;;;11.60;7.60;;;19.40;99.90;;;19.75;69.65;94274.75;5093870;28;20485;-73
2023/07/02 02:37:50;;;;;;;13.53;6.63;;;19.30;99.90;;;19.68;69.75;94275.59;5103442;28;20484;-61
2023/07/02 02:40:17;;;;;;;12.90;6.30;;;19.30;99.90;;;19.59;69.63;94279.53;5101272;28;20588;-74
2023/07/02 02:42:45;;;;;;;12.90;7.00;;;19.20;99.90;;;19.46;70.59;94274.25;5088919;28;20650;-72
2023/07/02 02:45:12;;;;;;;10.77;5.80;;;19.10;99.90;;;19.35;70.79;94281.88;5087284;28;20547;-60
2023/07/02 02:47:40;;;;;;;11.20;7.07;;;19.00;99.90;;;19.33;70.30;94280.44;5095349;28;20528;-58
2023/07/02 02:50:09;;;;;;;11.30;6.53;;;18.90;99.90;;;19.29;70.57;94290.69;5087601;28;20486;-72
2023/07/02 02:52:36;;;;;;;13.70;7.13;;;18.90;99.90;;;19.27;70.77;94290.09;5086254;28;20485;-59
2023/07/02 02:55:07;;;;;;;12.20;6.50;;;18.90;99.90;;;19.26;70.96;94292.97;5086063;28;20555;-58
2023/07/02 02:57:35;;;;;;;12.10;6.77;;;18.80;99.90;;;19.24;71.22;94287.84;5094306;28;20966;-73
2023/07/02 03:00:02;;;;;;;11.83;8.07;;;18.80;99.90;;;19.23;70.72;94306.72;5087776;28;20474;-72
2023/07/02 03:02:29;;;;;;;14.00;6.90;;;18.80;99.90;;;19.19;71.75;94308.16;5098279;28;20493;-59
2023/07/02 03:05:02;;;;;;;15.93;6.50;;;18.80;99.90;;;19.19;71.56;94305.47;5087394;28;20474;-73
2023/07/02 03:07:29;;;;;;;10.00;6.53;;;18.80;99.90;;;19.21;71.40;94304.25;5093897;28;20449;-72
2023/07/02 03:09:56;;;;;;;11.03;7.23;;;18.80;99.90;;;19.19;71.05;94282.28;5092463;28;21005;-74
2023/07/02 03:12:26;;;;;;;13.17;6.23;;;18.80;99.90;;;19.16;70.79;94291.56;5094363;28;20518;-59
2023/07/02 03:14:55;;;;;;;12.83;7.60;;;18.80;99.90;;;19.15;71.63;94295.22;5068787;28;20498;-73
2023/07/02 03:17:22;;;;;;;14.67;6.90;;;18.80;99.90;;;19.16;71.56;94304.88;5079972;28;20457;-58
2023/07/02 03:19:49;;;;;;;11.10;6.87;;;18.80;99.90;;;19.23;71.49;94317.38;5075759;28;20482;-73
2023/07/02 03:22:16;;;;;;;13.93;5.53;;;18.80;99.90;;;19.30;72.15;94318.16;5071909;28;20550;-72
2023/07/02 03:24:44;;;;;;;12.67;7.63;;;18.90;99.90;;;19.37;71.93;94323.53;5072678;28;20477;-74
2023/07/02 03:27:11;;;;;;;12.60;9.57;;;18.90;99.90;;;19.42;71.53;94331.72;5076602;28;20458;-60
2023/07/02 03:29:40;;;;;;;14.17;6.93;;;18.90;99.90;;;19.47;71.28;94323.88;5075165;28;20485;-72
2023/07/02 03:32:08;;;;;;;9.20;6.77;;;19.00;99.90;;;19.53;71.63;94329.22;5072938;28;20509;-58
2023/07/02 03:34:35;;;;;;;13.30;7.67;;;19.10;99.90;;;19.61;71.33;94330.84;5074973;28;20482;-63
2023/07/02 03:37:03;;;;;;;10.23;7.60;;;19.10;99.90;;;19.68;71.29;94320.16;5074166;28;20459;-72
2023/07/02 03:39:30;;;;;;;28.70;6.77;;;19.20;99.90;;;19.74;71.23;94323.84;5077658;28;20475;-74
2023/07/02 03:41:57;;;;;;;9.47;6.67;;;19.30;99.90;;;19.79;71.30;94321.38;5072792;28;20491;-73
2023/07/02 03:44:25;;;;;;;9.07;6.50;;;19.30;99.90;;;19.85;71.04;94321.34;5078341;28;20481;-60
2023/07/02 03:46:53;;;;;;;13.10;7.13;;;19.40;99.90;;;19.89;70.66;94321.75;5073963;28;20532;-72
2023/07/02 03:49:20;;;;;;;14.60;7.23;;;19.40;99.90;;;19.90;70.26;94318.06;5077900;28;20478;-59
2023/07/02 03:51:48;;;;;;;11.73;7.10;;;19.40;99.90;;;19.91;70.51;94313.53;5071331;28;20450;-58
2023/07/02 03:54:15;;;;;;;14.07;8.10;;;19.50;99.90;;;19.93;70.02;94316.81;5077486;28;20463;-73
2023/07/02 03:56:42;;;;;;;17.13;7.80;;;19.50;99.90;;;19.95;69.77;94314.75;5076691;28;20463;-60
2023/07/02 03:59:11;;;;;;;14.27;6.10;;;19.50;99.90;;;19.95;69.83;94312.06;5076445;28;20990;-73
2023/07/02 04:01:39;;;;;;;18.57;6.87;;;19.50;99.90;;;19.95;69.33;94318.22;5076931;28;20525;-60
2023/07/02 04:04:07;;;;;;;12.37;6.80;;;19.50;99.90;;;19.95;69.64;94328.91;5074401;28;20930;-59
2023/07/02 04:06:35;;;;;;;8.20;5.83;;;19.50;99.90;;;19.95;69.38;94331.56;5073334;28;20444;-59
2023/07/02 04:09:03;;;;;;;12.27;7.43;;;19.50;99.90;;;20.00;69.98;94330.94;5076668;28;20531;-58
2023/07/02 04:11:31;;;;;;;10.50;6.97;;;19.50;99.90;;;20.03;69.51;94339.38;5086220;28;20451;-71
2023/07/02 04:13:58;;;;;;;16.70;6.47;;;19.50;99.90;;;20.06;69.68;94341.63;5090218;28;20557;-58
2023/07/02 04:16:26;;;;;;;10.57;7.37;;;19.60;99.90;;;20.08;69.51;94336.06;5069962;28;20524;-59
2023/07/02 04:18:53;;;;;;;16.83;7.33;;;19.60;99.90;;;20.13;69.31;94346.09;5074770;28;20492;-59
2023/07/02 04:21:21;;;;;;;12.70;7.80;;;19.70;99.90;;;20.14;69.76;94348.56;5071158;28;20474;-74
2023/07/02 04:23:49;;;;;;;12.07;7.70;;;19.70;99.90;;;20.14;69.52;94340.56;5074901;28;20812;-72
2023/07/02 04:26:16;;;;;;;13.00;8.53;;;19.70;99.90;;;20.17;69.91;94349.97;5071119;28;20482;-73
2023/07/02 04:28:44;;;;;;;13.57;6.70;;;19.70;99.90;;;20.21;69.51;94352.00;5076449;28;20531;-73
2023/07/02 04:31:11;;;;;;;16.80;8.03;;;19.80;99.90;;;20.23;69.47;94357.13;5075586;28;20477;-59
2023/07/02 04:33:39;;;;;;;10.50;6.93;;;19.80;99.90;;;20.26;69.28;94371.94;5072257;28;20455;-59
2023/07/02 04:36:07;;;;;;;18.50;8.30;;;19.80;99.90;;;20.27;68.94;94366.38;5070499;28;20475;-59
2023/07/02 04:38:39;;;;;;;11.07;7.23;;;19.80;99.90;;;20.30;69.47;94371.28;5067495;28;20538;-59
2023/07/02 04:41:06;;;;;;;8.30;7.07;;;19.80;99.90;;;20.33;69.29;94372.72;5071001;28;20543;-77
2023/07/02 04:43:33;;;;;;;17.50;7.40;;;19.90;99.90;;;20.34;69.55;94377.84;5077601;28;20547;-60
2023/07/02 04:46:01;;;;;;;14.67;7.90;;;19.90;99.90;;;20.40;69.30;94379.69;5076092;28;20837;-70
2023/07/02 04:48:28;;;;;;;12.90;7.10;;;19.90;99.90;;;20.42;68.88;94379.47;5070759;28;20490;-59
2023/07/02 04:50:56;;;;;;;10.57;7.03;;;20.00;99.90;;;20.45;69.00;94383.53;5071477;28;20510;-72
2023/07/02 04:53:23;;;;;;;14.63;7.53;;;20.00;99.90;;;20.48;68.84;94377.78;5081522;28;20454;-75
2023/07/02 04:55:52;;;;;;;13.60;8.43;;;20.00;99.90;;;20.49;68.87;94379.41;5073119;28;20467;-58
2023/07/02 04:58:19;;;;;;;13.37;8.10;;;20.00;99.90;;;20.53;69.02;94377.97;5075357;28;20931;-62
2023/07/02 05:00:46;;;;;;;19.03;8.20;;;20.10;99.90;;;20.57;68.80;94381.84;5073262;28;20482;-58
2023/07/02 05:03:13;;;;;;;12.40;7.83;;;20.10;99.90;;;20.61;69.19;94383.06;5079417;28;20493;-59
2023/07/02 05:05:41;;;;;;;14.60;7.60;;;20.10;99.90;;;20.65;68.51;94373.63;5071191;28;20534;-59
2023/07/02 05:08:08;;;;;;;20.50;9.13;;;20.20;99.90;;;20.67;68.58;94379.56;5078015;28;20446;-60
2023/07/02 05:10:35;;;;;;;12.90;7.57;;;20.20;99.90;;;20.70;68.18;94387.16;5075249;28;20486;-58
2023/07/02 05:13:04;;;;;;;20.13;7.13;;;20.20;99.90;;;20.75;68.37;94389.19;5078297;28;20462;-75
2023/07/02 05:15:31;;;;;;;17.67;8.63;;;20.30;99.90;;;20.78;68.65;94391.44;5069955;28;20969;-58
2023/07/02 05:17:59;;;;;;;13.63;8.30;;;20.30;99.90;;;20.84;68.31;94384.41;5071150;28;20451;-58
2023/07/02 05:20:26;;;;;;;12.03;6.67;;;20.30;99.90;;;20.90;68.28;94386.22;5070172;28;20510;-62
2023/07/02 05:22:54;;;;;;;17.53;8.60;;;20.40;99.90;;;20.95;68.14;94383.72;5073309;28;20505;-72
2023/07/02 05:25:21;;;;;;;15.43;8.27;;;20.50;99.90;;;21.01;68.02;94382.03;5071942;28;20555;-73
2023/07/02 05:27:48;;;;;;;14.90;8.70;;;20.50;99.90;;;21.04;67.82;94393.09;5086352;28;20442;-74
2023/07/02 05:30:17;;;;;;;20.20;8.87;;;20.60;99.90;;;21.03;67.74;94394.13;5070482;28;20487;-58
2023/07/02 05:32:44;;;;;;;17.03;8.13;;;20.60;99.90;;;21.05;67.76;94386.72;5071952;28;20469;-72
2023/07/02 05:35:12;;;;;;;22.80;9.40;;;20.60;99.90;;;21.07;67.37;94392.69;5075680;28;20864;-74
2023/07/02 05:37:39;;;;;;;51.00;9.17;;;20.60;99.90;;;21.08;67.55;94401.50;5071976;28;20891;-73
2023/07/02 05:40:08;;;;;;;16.77;8.17;;;20.60;99.90;;;21.11;67.47;94407.22;5072266;28;20478;-71
2023/07/02 05:42:37;;;;;;;14.90;7.50;;;20.60;99.90;;;21.13;67.34;94409.69;5079393;28;20606;-72
2023/07/02 05:45:05;;;;;;;14.57;8.90;;;20.70;99.90;;;21.16;67.43;94395.06;5083375;28;20466;-74
2023/07/02 05:47:34;;;;;;;16.00;8.07;;;20.70;99.90;;;21.23;67.62;94411.91;5082944;28;20447;-75
2023/07/02 05:50:01;;;;;;;15.60;8.37;;;20.70;99.90;;;21.26;67.25;94416.81;5083342;28;20474;-57
2023/07/02 05:52:28;;;;;;;14.20;8.33;;;20.80;99.90;;;21.26;67.22;94412.28;5075189;28;20458;-57
2023/07/02 05:54:56;;;;;;;22.23;10.10;;;20.80;99.90;;;21.25;66.58;94415.97;5096022;28;20458;-74
2023/07/02 05:57:23;;;;;;;19.23;8.87;;;20.80;99.90;;;21.24;67.15;94413.53;5082665;28;20497;-57
2023/07/02 05:59:50;;;;;;;19.83;9.13;;;20.70;99.90;;;21.26;67.02;94416.81;5082881;28;20463;-58
2023/07/02 06:02:17;;;;;;;25.27;9.47;;;20.70;99.90;;;21.30;66.93;94408.13;5068951;28;20524;-59
2023/07/02 06:04:46;;;;;;;17.07;8.70;;;20.80;99.90;;;21.35;66.73;94403.97;5066587;28;20475;-77
2023/07/02 06:07:13;;;;;;;13.80;8.67;;;20.80;99.90;;;21.38;66.42;94411.56;5071415;28;20945;-76
2023/07/02 06:09:41;;;;;;;15.03;8.77;;;20.90;99.90;;;21.44;66.53;94408.84;5070151;28;20934;-75
2023/07/02 06:12:09;;;;;;;23.80;10.43;;;20.90;99.90;;;21.53;66.47;94404.06;5074984;28;20542;-76
2023/07/02 06:14:36;;;;;;;17.57;9.97;;;21.00;99.90;;;21.62;66.49;94399.25;5069632;28;20831;-75
2023/07/02 06:17:07;;;;;;;17.87;9.77;;;21.10;99.90;;;21.67;66.16;94386.84;5072457;28;20474;-76
2023/07/02 06:19:34;;;;;;;11.43;8.30;;;21.10;99.90;;;21.72;65.78;94383.53;5066430;28;20475;-59
2023/07/02 06:22:03;;;;;;;19.53;10.30;;;21.20;99.90;;;21.73;65.37;94376.28;5070605;28;20459;-57
2023/07/02 06:24:30;;;;;;;23.27;10.07;;;21.20;99.90;;;21.76;65.03;94382.00;5070403;28;20609;-76
2023/07/02 06:26:58;;;;;;;20.47;10.23;;;21.30;99.90;;;21.82;65.66;94381.13;5072253;28;20457;-58
2023/07/02 06:29:25;;;;;;;18.63;9.83;;;21.40;99.90;;;21.91;65.17;94386.22;5076832;28;20475;-56
2023/07/02 06:31:52;;;;;;;13.90;9.53;;;21.40;99.90;;;21.97;64.56;94390.69;5068992;28;20528;-76
2023/07/02 06:34:19;;;;;;;19.20;10.70;;;21.40;99.90;;;22.03;64.72;94379.88;5074781;28;20489;-59
2023/07/02 06:36:47;;;;;;;17.73;10.53;;;21.50;99.90;;;22.12;64.31;94375.06;5069977;28;20864;-59
2023/07/02 06:39:15;;;;;;;16.90;8.97;;;21.60;99.90;;;22.25;63.73;94375.94;5068996;28;20966;-74
2023/07/02 06:41:43;;;;;;;16.47;10.00;;;21.70;99.90;;;22.37;63.70;94375.00;5066994;28;20458;-60
2023/07/02 06:44:10;;;;;;;19.87;11.00;;;21.80;99.90;;;22.46;63.49;94366.63;5075957;28;20477;-58
2023/07/02 06:46:37;;;;;;;18.33;11.17;;;21.90;99.90;;;22.53;63.78;94370.88;5075829;28;20457;-74
2023/07/02 06:49:04;;;;;;;19.93;12.73;;;22.00;99.90;;;22.65;63.77;94375.44;5073418;28;20473;-60
2023/07/02 06:51:33;;;;;;;18.90;10.63;;;22.10;99.90;;;22.74;63.35;94376.75;5076638;28;20455;-75
2023/07/02 06:54:00;;;;;;;14.17;10.10;;;22.20;99.90;;;22.86;63.04;94382.97;5075244;28;20457;-58
2023/07/02 06:56:29;;;;;;;15.47;10.07;;;22.30;99.90;;;23.01;63.22;94379.09;5073954;28;20462;-58
2023/07/02 06:58:56;;;;;;;15.03;9.23;;;22.50;99.90;;;23.13;62.08;94382.66;5077783;28;20515;-60
2023/07/02 07:01:24;;;;;;;14.77;9.70;;;22.60;99.90;;;23.30;61.85;94377.44;5078492;28;20461;-76
2023/07/02 07:03:52;;;;;;;16.73;9.10;;;22.80;99.90;;;23.46;61.91;94381.28;5074455;28;20522;-58
2023/07/02 07:06:19;;;;;;;16.50;9.60;;;22.90;99.90;;;23.63;61.15;94374.16;5075922;28;20469;-73
2023/07/02 07:08:47;;;;;;;13.30;9.40;;;23.10;99.90;;;23.82;60.59;94368.66;5071332;28;20934;-75
2023/07/02 07:11:14;;;;;;;22.73;10.37;;;23.20;99.90;;;23.95;60.46;94375.69;5072670;28;20815;-74
2023/07/02 07:13:43;;;;;;;18.90;10.40;;;23.40;99.90;;;24.06;60.43;94371.34;5072544;28;20450;-60
2023/07/02 07:16:13;;;;;;;17.97;10.07;;;23.50;99.90;;;24.23;59.73;94364.22;5074884;28;20498;-75
2023/07/02 07:18:40;;;;;;;13.20;8.30;;;23.60;99.90;;;24.45;59.66;94363.56;5078520;28;20515;-59
2023/07/02 07:21:07;;;;;;;28.30;13.90;;;23.80;99.90;;;24.67;59.50;94361.88;5070909;28;20883;-77
2023/07/02 07:23:35;;;;;;;16.73;10.90;;;24.00;99.90;;;24.94;59.03;94363.16;5073722;28;20526;-60
2023/07/02 07:26:02;;;;;;;28.30;10.30;;;24.30;99.90;;;25.24;58.94;94358.28;5071398;28;20984;-74
2023/07/02 07:28:29;;;;;;;25.80;10.47;;;24.50;99.90;;;25.54;57.90;94367.94;5075412;28;20450;-81
2023/07/02 07:30:58;;;;;;;16.43;9.13;;;24.80;99.80;;;25.67;56.82;94363.28;5092085;28;20557;-78
2023/07/02 07:33:25;;;;;;;13.83;9.70;;;25.00;99.00;;;25.85;56.87;94362.22;5077794;28;20514;-79
2023/07/02 07:35:52;;;;;;;20.13;9.50;;;25.20;99.00;;;26.14;56.23;94368.28;5079126;28;20462;-78
2023/07/02 07:38:20;;;;;;;14.00;9.87;;;25.40;98.60;;;26.44;55.46;94359.75;5079045;28;20458;-59
2023/07/02 07:40:47;;;;;;;19.90;9.03;;;25.70;98.00;;;26.67;54.78;94357.09;5079399;28;20482;-59
2023/07/02 07:43:15;;;;;;;16.40;8.90;;;25.90;97.40;;;26.79;54.36;94355.06;5078417;28;20853;-78
2023/07/02 07:45:42;;;;;;;14.13;8.40;;;26.10;96.70;;;26.96;53.57;94355.78;5074708;28;20473;-80
2023/07/02 07:48:11;;;;;;;9.93;7.63;;;26.30;96.30;;;27.09;53.77;94348.31;5076380;28;20454;-79
2023/07/02 07:50:38;;;;;;;13.90;8.70;;;26.40;96.20;;;27.31;53.73;94349.09;5078846;28;20528;-61
2023/07/02 07:53:05;;;;;;;12.27;8.00;;;26.60;96.10;;;27.53;53.26;94349.00;5077794;28;20484;-79
2023/07/02 07:55:33;;;;;;;18.20;9.00;;;26.80;95.70;;;27.72;53.04;94351.28;5075075;28;20531;-71
2023/07/02 07:58:00;;;;;;;13.20;7.63;;;27.00;95.20;;;27.94;52.58;94353.84;5072711;28;20446;-78
2023/07/02 08:00:27;;;;;;;12.60;6.97;;;27.20;94.90;;;28.21;51.62;94356.47;5079459;28;20982;-60
2023/07/02 08:02:56;;;;;;;17.40;8.10;;;27.40;94.40;;;28.56;50.96;94365.00;5074157;28;20462;-82
2023/07/02 08:05:25;;;;;;;17.53;8.80;;;27.70;94.10;;;28.75;49.61;94362.66;5072065;28;20505;-60
2023/07/02 08:07:53;;;;;;;23.00;14.80;;;28.00;92.90;;;28.80;49.90;94359.97;5077581;28;20449;-80
2023/07/02 08:10:20;;;;;;;11.37;7.70;;;28.10;92.00;;;28.71;50.18;94356.97;5075349;28;20564;-80
2023/07/02 08:12:49;;;;;;;14.90;8.57;;;28.10;91.80;;;28.67;50.10;94360.47;5075356;28;20529;-81
2023/07/02 08:15:16;;;;;;;10.07;7.67;;;28.10;91.80;;;28.69;49.54;94359.13;5077544;28;20894;-60
2023/07/02 08:17:43;;;;;;;16.83;8.97;;;28.10;91.80;;;28.66;49.08;94362.38;5078237;28;21008;-82
2023/07/02 08:20:12;;;;;;;11.60;8.00;;;28.10;91.20;;;28.58;50.03;94360.13;5082494;28;20536;-60
2023/07/02 08:22:40;;;;;;;18.67;7.90;;;28.00;91.00;;;28.49;49.87;94356.31;5077596;28;20454;-60
2023/07/02 08:25:08;;;;;;;16.30;9.37;;;28.00;90.80;;;28.39;49.73;94349.78;5080802;28;20640;-80
2023/07/02 08:27:36;;;;;;;12.70;8.47;;;27.90;90.90;;;28.46;50.24;94349.56;5077627;28;20573;-61
2023/07/02 08:30:04;;;;;;;13.53;8.70;;;27.90;91.20;;;28.53;49.82;94352.81;5074427;28;20492;-81
2023/07/02 08:32:32;;;;;;;13.83;7.90;;;27.90;91.00;;;28.53;49.43;94355.50;5086049;28;20545;-60
2023/07/02 08:34:59;;;;;;;13.93;8.93;;;27.90;90.80;;;28.64;49.77;94356.38;5076650;28;20473;-79
2023/07/02 08:37:27;;;;;;;14.60;9.00;;;27.90;90.90;;;28.87;48.67;94362.41;5078753;28;20539;-61
2023/07/02 08:39:55;;;;;;;28.57;14.87;;;28.10;90.60;;;29.02;49.04;94356.19;5080780;28;20481;-78
2023/07/02 08:42:22;;;;;;;14.50;8.20;;;28.30;90.10;;;29.09;48.52;94356.75;5081071;28;20450;-80
2023/07/02 08:44:54;;;;;;;12.70;8.33;;;28.40;90.00;;;29.23;48.24;94355.19;5080684;28;20489;-59
2023/07/02 08:47:21;;;;;;;15.87;8.87;;;28.50;89.30;;;29.41;48.56;94343.00;5072938;28;20442;-60
2023/07/02 08:49:51;;;;;;;12.00;9.37;;;28.70;89.10;;;29.64;47.99;94348.97;5078075;28;20474;-76
2023/07/02 08:52:18;;;;;;;13.00;8.50;;;28.90;88.20;;;29.65;47.31;94351.41;5077999;28;20952;-61
2023/07/02 08:54:45;;;;;;;11.53;7.93;;;29.00;87.50;;;29.62;47.82;94351.94;5074909;28;20530;-79
2023/07/02 08:57:14;;;;;;;15.10;8.60;;;29.00;86.50;;;29.56;47.23;94349.50;5073952;28;20258;-78
2023/07/02 08:59:41;;;;;;;17.20;8.90;;;29.00;86.40;;;29.48;47.98;94353.56;5077301;28;20228;-59
2023/07/02 09:02:09;;;;;;;15.40;7.97;;;28.80;86.00;;;29.40;47.95;94348.69;5081496;28;20646;-59
2023/07/02 09:04:36;;;;;;;11.20;8.47;;;28.80;86.00;;;29.45;48.04;94349.50;5084158;28;20227;-84
2023/07/02 09:07:07;;;;;;;14.23;7.50;;;28.80;86.60;;;29.63;47.61;94345.41;5075508;28;20204;-58
2023/07/02 09:09:34;;;;;;;24.53;8.37;;;28.90;86.90;;;29.61;47.82;94346.81;5071054;28;20247;-59
2023/07/02 09:12:02;;;;;;;9.70;7.30;;;29.00;85.90;;;29.44;47.83;94347.88;5073479;28;20211;-80
2023/07/02 09:14:32;;;;;;;20.83;8.50;;;28.80;85.70;;;29.25;48.42;94350.31;5076922;28;20224;-60
2023/07/02 09:17:06;;;;;;;16.90;7.90;;;28.70;86.00;;;29.04;48.74;94354.06;5076092;28;20211;-65
2023/07/02 09:19:34;;;;;;;14.83;7.50;;;28.50;86.30;;;28.81;49.35;94355.38;5074732;28;20238;-63
2023/07/02 09:22:01;;;;;;;9.67;7.80;;;28.30;87.20;;;28.64;50.39;94350.16;5073061;28;20454;-59
2023/07/02 09:24:30;;;;;;;19.73;13.80;;;28.10;88.80;;;28.51;50.58;94346.06;5074072;28;20501;-61
2023/07/02 09:26:58;;;;;;;19.30;10.67;;;28.00;89.70;;;28.40;51.46;94346.00;5077796;28;20452;-65
2023/07/02 09:29:28;;;;;;;10.03;6.93;;;27.90;90.30;;;28.35;51.68;94342.44;5075862;28;20531;-59
2023/07/02 09:31:57;;;;;;;11.40;8.37;;;27.80;90.50;;;28.29;50.54;94338.09;5072887;28;21044;-59
2023/07/02 09:34:30;;;;;;;16.20;7.83;;;27.70;90.00;;;28.25;51.01;94333.22;5069395;28;20473;-58
2023/07/02 09:36:58;;;;;;;11.97;7.10;;;27.70;90.20;;;28.29;51.11;94333.53;5069312;28;20463;-58
2023/07/02 09:39:28;;;;;;;11.97;6.60;;;27.60;90.10;;;28.36;50.55;94338.69;5068833;28;20486;-60
2023/07/02 09:41:56;;;;;;;9.83;6.70;;;27.70;90.30;;;28.45;50.21;94334.38;5072949;28;20520;-65
2023/07/02 09:44:26;;;;;;;11.33;6.93;;;27.80;90.10;;;28.54;51.23;94340.91;5070444;28;20315;-65
2023/07/02 09:47:00;;;;;;;10.20;6.63;;;27.90;90.70;;;28.64;50.75;94334.75;5070693;28;20803;-64
2023/07/02 09:49:27;;;;;;;8.67;7.50;;;28.00;90.50;;;28.72;50.74;94330.69;5070495;28;20305;-57
2023/07/02 09:51:55;;;;;;;19.07;7.87;;;28.10;90.40;;;28.78;50.16;94333.16;5070990;28;20208;-67
2023/07/02 09:54:22;;;;;;;16.33;8.37;;;28.20;90.10;;;28.78;50.50;94335.03;5069237;28;20474;-64
2023/07/02 09:56:49;;;;;;;11.63;7.00;;;28.20;89.50;;;28.73;50.33;94343.16;5072334;28;20207;-63
2023/07/02 09:59:17;;;;;;;15.43;6.80;;;28.10;88.80;;;28.54;49.35;94335.50;5070597;28;20458;-68
2023/07/02 10:01:44;;;;;;;9.10;7.13;;;28.00;87.80;;;28.36;49.80;94333.25;5070458;28;20548;-65
2023/07/02 10:04:18;;;;;;;17.10;7.77;;;27.90;88.60;;;28.18;49.90;94332.66;5072341;28;20554;-62
2023/07/02 10:06:48;;;;;;;8.60;6.70;;;27.70;87.70;;;27.96;50.19;94332.81;5070417;28;20478;-64
2023/07/02 10:09:16;;;;;;;9.73;6.50;;;27.50;87.60;;;27.81;50.47;94328.09;5073635;28;20481;-64
2023/07/02 10:11:44;;;;;;;11.23;7.70;;;27.30;88.80;;;27.74;51.03;94319.41;5076729;28;20608;-64
2023/07/02 10:14:11;;;;;;;15.70;7.10;;;27.20;89.10;;;27.68;50.93;94315.03;5073907;28;20470;-64
2023/07/02 10:16:51;;;;;;;8.43;6.30;;;27.10;88.90;;;27.65;51.13;94310.16;5075991;28;20492;-65